Time;durP1;ratioP1;P1;durP2;ratioP2;P2;SDS_P1;SDS_P2;PMS_P1;PMS_P2;Temp;Humidity;BMP_temperature;BMP_pressure;BME280_temperature;BME280_humidity;BME280_pressure;Samples;Min_cycle;Max_cycle;Signal;HPM_P1;HPM_P2
2024/02/06 00:00:49;;;;;;;20.58;3.17;;;;;;;11.96;56.56;99627.03;4960368;28;96859;-73
2024/02/06 00:03:14;;;;;;;12.93;3.45;;;;;;;11.97;56.80;99626.09;4976735;28;97438;-74
2024/02/06 00:05:40;;;;;;;14.82;3.90;;;;;;;11.92;56.68;99623.69;4994458;28;97614;-74
2024/02/06 00:08:06;;;;;;;9.63;3.42;;;;;;;11.88;56.75;99616.03;4977147;28;96533;-73
2024/02/06 00:10:31;;;;;;;10.75;3.25;;;;;;;11.84;56.70;99612.69;4976981;28;96839;-74
2024/02/06 00:12:57;;;;;;;13.07;3.75;;;;;;;11.81;56.83;99612.84;4976347;28;100877;-73
2024/02/06 00:15:22;;;;;;;14.43;3.55;;;;;;;11.91;56.59;99616.72;4994670;28;97473;-73
2024/02/06 00:17:48;;;;;;;12.07;3.50;;;;;;;11.91;56.58;99610.63;4994631;28;96552;-73
2024/02/06 00:20:19;;;;;;;9.52;3.30;;;;;;;12.00;56.42;99616.25;4977020;28;96669;-74
2024/02/06 00:22:44;;;;;;;9.32;2.72;;;;;;;12.08;56.65;99622.94;4975632;28;98215;-73
2024/02/06 00:25:10;;;;;;;19.50;3.45;;;;;;;11.96;56.23;99613.88;4976793;28;97545;-74
2024/02/06 00:27:35;;;;;;;11.25;3.42;;;;;;;11.85;56.85;99605.66;4960591;28;96549;-73
2024/02/06 00:30:01;;;;;;;13.43;3.38;;;;;;;11.93;56.35;99619.31;4960319;28;96917;-73
2024/02/06 00:32:26;;;;;;;16.02;3.70;;;;;;;11.88;56.66;99613.41;4959966;28;97541;-74
2024/02/06 00:34:56;;;;;;;15.02;3.28;;;;;;;11.86;56.75;99616.09;4959693;28;99583;-73
2024/02/06 00:37:22;;;;;;;12.77;3.40;;;;;;;11.85;56.78;99606.53;4994502;28;96489;-73
2024/02/06 00:39:47;;;;;;;9.90;3.10;;;;;;;11.87;56.72;99594.16;4977005;28;96773;-74
2024/02/06 00:42:13;;;;;;;9.35;2.95;;;;;;;11.83;56.94;99608.34;4942863;28;100006;-73
2024/02/06 00:44:41;;;;;;;9.57;3.13;;;;;;;12.00;56.67;99610.16;4959649;28;99829;-73
2024/02/06 00:47:08;;;;;;;12.85;3.20;;;;;;;11.92;56.74;99597.38;4994382;28;96471;-73
2024/02/06 00:49:34;;;;;;;14.38;3.15;;;;;;;11.90;57.00;99595.78;4979935;28;96797;-73
2024/02/06 00:52:00;;;;;;;14.57;3.65;;;;;;;11.87;56.85;99591.53;4979626;28;97558;-73
2024/02/06 00:54:25;;;;;;;12.27;3.15;;;;;;;11.86;56.94;99587.19;4963371;28;97867;-73
2024/02/06 00:56:51;;;;;;;10.68;3.35;;;;;;;11.90;56.94;99593.16;4979414;28;96629;-73
2024/02/06 00:59:16;;;;;;;16.55;3.55;;;;;;;11.87;56.80;99588.03;4980184;28;96805;-74
2024/02/06 01:01:42;;;;;;;9.88;2.50;;;;;;;11.82;57.26;99583.00;4979355;28;97545;-73
2024/02/06 01:04:07;;;;;;;11.10;2.83;;;;;;;11.78;57.59;99591.97;4980125;28;97466;-73
2024/02/06 01:06:33;;;;;;;12.93;3.67;;;;;;;11.88;56.79;99595.00;4979954;28;96612;-73
2024/02/06 01:08:58;;;;;;;8.60;3.90;;;;;;;11.84;57.10;99593.41;4979781;28;96594;-73
2024/02/06 01:11:24;;;;;;;11.40;3.65;;;;;;;12.02;56.66;99589.06;4978749;28;97396;-73
2024/02/06 01:13:51;;;;;;;15.38;3.75;;;;;;;12.05;56.81;99592.38;4979461;28;97374;-75
2024/02/06 01:16:16;;;;;;;10.73;2.88;;;;;;;11.98;57.16;99597.09;4979301;28;96557;-73
2024/02/06 01:18:41;;;;;;;12.70;3.22;;;;;;;11.95;56.81;99589.34;4979650;28;96925;-73
2024/02/06 01:21:07;;;;;;;16.17;3.22;;;;;;;11.95;56.84;99586.72;4963087;28;97514;-73
2024/02/06 01:23:33;;;;;;;10.77;3.25;;;;;;;11.94;56.40;99574.50;4945822;28;101053;-74
2024/02/06 01:25:58;;;;;;;15.90;3.67;;;;;;;11.91;56.97;99585.19;4979345;28;96544;-73
2024/02/06 01:28:24;;;;;;;11.68;3.33;;;;;;;11.89;56.69;99583.56;4963465;28;96959;-73
2024/02/06 01:30:49;;;;;;;12.18;4.07;;;;;;;11.96;56.90;99592.84;4962644;28;97471;-73
2024/02/06 01:33:15;;;;;;;12.95;3.53;;;;;;;11.95;56.69;99589.34;4962728;28;97362;-74
2024/02/06 01:35:41;;;;;;;13.95;3.38;;;;;;;11.88;56.47;99587.13;4978492;28;96564;-75
2024/02/06 01:38:06;;;;;;;11.73;2.97;;;;;;;11.86;56.42;99578.44;4978962;28;96809;-73
2024/02/06 01:40:40;;;;;;;12.88;3.90;;;;;;;11.86;56.87;99581.91;4978805;28;97908;-73
2024/02/06 01:43:05;;;;;;;11.23;3.97;;;;;;;11.79;57.07;99580.50;4962304;28;100920;-73
2024/02/06 01:45:31;;;;;;;16.55;4.38;;;;;;;11.73;56.88;99575.56;4979523;28;96587;-74
2024/02/06 01:47:57;;;;;;;18.67;4.22;;;;;;;11.72;57.12;99577.34;4978865;28;96946;-74
2024/02/06 01:50:23;;;;;;;9.88;3.22;;;;;;;11.71;56.82;99578.25;4978790;28;97450;-73
2024/02/06 01:52:51;;;;;;;19.75;4.55;;;;;;;11.67;57.37;99576.72;4979058;28;97730;-74
2024/02/06 01:55:17;;;;;;;15.77;3.13;;;;;;;11.70;57.08;99573.94;4979457;28;96749;-73
2024/02/06 01:57:45;;;;;;;9.38;3.13;;;;;;;11.68;57.35;99574.94;4979184;28;96828;-73
2024/02/06 02:00:11;;;;;;;14.20;3.65;;;;;;;11.55;57.43;99570.31;4960844;28;97958;-74
2024/02/06 02:02:39;;;;;;;15.00;3.75;;;;;;;11.51;56.95;99576.63;4997295;28;97429;-73
2024/02/06 02:05:07;;;;;;;12.52;3.17;;;;;;;11.57;57.20;99576.31;4997572;28;96616;-73
2024/02/06 02:07:34;;;;;;;13.00;4.28;;;;;;;11.70;57.08;99568.69;4962261;28;96962;-74
2024/02/06 02:10:00;;;;;;;18.85;3.90;;;;;;;11.68;57.09;99567.91;4996179;28;97982;-73
2024/02/06 02:12:25;;;;;;;8.68;3.63;;;;;;;11.74;56.98;99579.88;4962487;28;97255;-74
2024/02/06 02:14:51;;;;;;;19.40;4.20;;;;;;;11.73;57.24;99555.38;4978664;28;96578;-74
2024/02/06 02:17:17;;;;;;;15.50;3.88;;;;;;;11.64;56.71;99557.63;4978925;28;96924;-73
2024/02/06 02:19:42;;;;;;;13.02;4.45;;;;;;;11.53;57.07;99569.53;4962042;28;97523;-73
2024/02/06 02:22:08;;;;;;;9.85;3.50;;;;;;;11.46;57.27;99567.25;4977834;28;98089;-73
2024/02/06 02:24:33;;;;;;;10.02;3.97;;;;;;;11.37;57.91;99565.94;4978110;28;96513;-73
2024/02/06 02:26:59;;;;;;;10.73;4.15;;;;;;;11.54;57.45;99570.38;4978312;28;96949;-73
2024/02/06 02:29:26;;;;;;;14.18;4.20;;;;;;;11.51;57.09;99560.84;4978086;28;97654;-73
2024/02/06 02:31:51;;;;;;;15.75;4.00;;;;;;;11.43;57.20;99575.31;4961461;28;101125;-73
2024/02/06 02:34:17;;;;;;;17.48;4.35;;;;;;;11.40;57.00;99570.19;4978389;28;96558;-73
2024/02/06 02:36:42;;;;;;;20.23;4.40;;;;;;;11.53;56.92;99566.06;4945594;28;96859;-73
2024/02/06 02:39:09;;;;;;;15.60;4.72;;;;;;;11.52;56.99;99562.56;4961737;28;97495;-73
2024/02/06 02:41:35;;;;;;;14.10;4.25;;;;;;;11.48;57.24;99578.56;4945542;28;99949;-73
2024/02/06 02:44:01;;;;;;;14.82;4.45;;;;;;;11.47;56.87;99572.47;4978258;28;96585;-73
2024/02/06 02:46:26;;;;;;;15.70;3.83;;;;;;;11.42;57.04;99581.50;4978427;28;96805;-74
2024/02/06 02:48:51;;;;;;;7.88;3.28;;;;;;;11.29;57.17;99568.97;4977605;28;97510;-73
2024/02/06 02:51:17;;;;;;;12.50;3.65;;;;;;;11.28;57.21;99566.41;4977801;28;97907;-73
2024/02/06 02:53:43;;;;;;;13.60;4.25;;;;;;;11.33;57.18;99585.44;4978290;28;96593;-73
2024/02/06 02:56:08;;;;;;;13.23;4.47;;;;;;;11.33;56.64;99572.28;4995727;28;96738;-73
2024/02/06 02:58:34;;;;;;;12.50;4.55;;;;;;;11.27;56.94;99562.94;4961121;28;101097;-73
2024/02/06 03:01:00;;;;;;;12.90;4.45;;;;;;;11.23;56.86;99573.69;4960976;28;101394;-73
2024/02/06 03:03:25;;;;;;;13.90;4.68;;;;;;;11.20;57.06;99572.03;4995692;28;96516;-74
2024/02/06 03:05:51;;;;;;;14.52;5.07;;;;;;;11.23;56.81;99568.44;4978258;28;96623;-73
2024/02/06 03:08:16;;;;;;;12.00;4.60;;;;;;;11.15;57.15;99566.16;4977684;28;97473;-73
2024/02/06 03:10:42;;;;;;;15.27;4.80;;;;;;;11.24;57.02;99570.13;4960803;28;97453;-73
2024/02/06 03:13:07;;;;;;;16.42;5.75;;;;;;;11.22;56.48;99562.28;4960939;28;96613;-74
2024/02/06 03:15:33;;;;;;;16.20;5.85;;;;;;;11.18;56.93;99571.25;4961421;28;96788;-73
2024/02/06 03:17:58;;;;;;;17.05;5.95;;;;;;;11.16;56.67;99567.00;4977401;28;98085;-73
2024/02/06 03:20:24;;;;;;;21.67;5.72;;;;;;;11.17;56.59;99563.44;4960685;28;99451;-73
2024/02/06 03:22:49;;;;;;;19.70;5.95;;;;;;;11.17;57.05;99576.56;4960541;28;96629;-73
2024/02/06 03:25:15;;;;;;;17.65;5.95;;;;;;;11.15;56.75;99581.91;4961007;28;96940;-73
2024/02/06 03:27:43;;;;;;;19.67;5.70;;;;;;;11.18;56.75;99575.66;4977189;28;97534;-75
2024/02/06 03:30:09;;;;;;;22.65;5.22;;;;;;;11.18;57.05;99584.41;4977519;28;97925;-73
2024/02/06 03:32:35;;;;;;;22.42;5.80;;;;;;;11.26;56.53;99587.50;4960866;28;96562;-73
2024/02/06 03:35:00;;;;;;;16.63;5.57;;;;;;;11.22;56.64;99579.84;4977543;28;96827;-75
2024/02/06 03:37:26;;;;;;;12.80;5.35;;;;;;;11.27;56.64;99583.09;4959994;28;101336;-74
2024/02/06 03:39:51;;;;;;;14.25;5.10;;;;;;;11.20;56.78;99584.31;4977070;28;97470;-73
2024/02/06 03:42:17;;;;;;;17.88;5.50;;;;;;;11.38;56.31;99582.59;4995062;28;96410;-73
2024/02/06 03:44:43;;;;;;;17.90;5.95;;;;;;;11.31;56.81;99577.63;4995127;28;96743;-73
2024/02/06 03:47:08;;;;;;;13.27;5.05;;;;;;;11.24;56.46;99575.38;4976633;28;99358;-73
2024/02/06 03:49:34;;;;;;;15.45;4.72;;;;;;;11.15;56.81;99583.69;4994461;28;98043;-73
2024/02/06 03:51:59;;;;;;;23.17;5.40;;;;;;;11.11;56.73;99575.09;4995186;28;96529;-73
2024/02/06 03:54:25;;;;;;;18.33;4.97;;;;;;;11.13;56.54;99570.63;4995423;28;96770;-73
2024/02/06 03:56:52;;;;;;;22.75;4.82;;;;;;;11.13;56.86;99578.50;4960878;28;97957;-74
2024/02/06 03:59:17;;;;;;;13.07;4.60;;;;;;;11.19;56.49;99574.72;4977484;28;96600;-74
2024/02/06 04:01:44;;;;;;;14.52;4.53;;;;;;;11.16;56.42;99577.50;4976831;28;96579;-73
2024/02/06 04:04:10;;;;;;;19.45;5.28;;;;;;;11.21;56.59;99573.75;4976905;28;96984;-74
2024/02/06 04:06:35;;;;;;;18.63;5.28;;;;;;;11.26;56.08;99584.88;4976546;28;101543;-73
2024/02/06 04:09:01;;;;;;;19.25;5.97;;;;;;;11.25;56.05;99585.78;4976295;28;101302;-74
2024/02/06 04:11:26;;;;;;;15.10;5.43;;;;;;;11.18;56.29;99586.19;4976939;28;96533;-73
2024/02/06 04:13:52;;;;;;;14.20;5.30;;;;;;;11.16;55.98;99586.22;4960309;28;96826;-73
2024/02/06 04:16:18;;;;;;;12.93;4.82;;;;;;;11.10;56.11;99583.91;4976592;28;97420;-73
2024/02/06 04:18:43;;;;;;;22.23;4.95;;;;;;;11.04;56.39;99576.31;4976630;28;100767;-73
2024/02/06 04:21:09;;;;;;;16.48;4.55;;;;;;;11.02;56.27;99584.25;4959512;28;96709;-73
2024/02/06 04:23:34;;;;;;;15.43;5.30;;;;;;;10.94;56.39;99590.78;4974963;28;96847;-73
2024/02/06 04:26:00;;;;;;;14.35;4.88;;;;;;;10.93;56.50;99587.31;4975920;28;97882;-73
2024/02/06 04:28:25;;;;;;;11.05;4.40;;;;;;;11.00;56.46;99587.91;4960163;28;97319;-74
2024/02/06 04:30:51;;;;;;;14.25;4.72;;;;;;;11.07;56.05;99590.16;4976684;28;96614;-75
2024/02/06 04:33:16;;;;;;;13.10;3.97;;;;;;;11.02;55.85;99586.88;4976447;28;96839;-74
2024/02/06 04:35:42;;;;;;;11.13;4.25;;;;;;;11.11;55.88;99601.34;4976324;28;97449;-74
2024/02/06 04:38:08;;;;;;;14.95;4.32;;;;;;;10.96;56.06;99589.81;4960090;28;97302;-73
2024/02/06 04:40:33;;;;;;;20.55;4.72;;;;;;;10.98;55.93;99589.75;4960062;28;96618;-74
2024/02/06 04:42:58;;;;;;;19.60;4.78;;;;;;;10.95;56.10;99587.28;4994683;28;96733;-73
2024/02/06 04:45:25;;;;;;;13.25;4.00;;;;;;;11.04;55.67;99592.06;4975984;28;99587;-74
2024/02/06 04:47:50;;;;;;;13.07;5.15;;;;;;;11.03;55.82;99591.22;4976324;28;96569;-73
2024/02/06 04:50:18;;;;;;;14.50;4.13;;;;;;;11.05;55.51;99581.50;4959431;28;96636;-75
2024/02/06 04:52:44;;;;;;;13.00;4.18;;;;;;;11.02;55.72;99584.25;4960351;28;96810;-73
2024/02/06 04:55:10;;;;;;;12.90;4.07;;;;;;;11.01;55.69;99582.56;4959523;28;99396;-75
2024/02/06 04:57:36;;;;;;;10.48;4.18;;;;;;;10.95;55.55;99582.00;4943067;28;101340;-73
2024/02/06 05:00:03;;;;;;;15.30;4.80;;;;;;;10.92;55.62;99579.53;4994219;28;96579;-73
2024/02/06 05:02:29;;;;;;;13.80;4.18;;;;;;;10.88;55.51;99571.81;4960021;28;96622;-73
2024/02/06 05:04:54;;;;;;;15.60;5.03;;;;;;;10.85;55.42;99587.69;4960208;28;101134;-73
2024/02/06 05:07:20;;;;;;;13.00;3.63;;;;;;;10.97;55.48;99570.53;4994884;28;97465;-73
2024/02/06 05:09:46;;;;;;;17.50;4.90;;;;;;;10.93;55.29;99570.72;4976311;28;96708;-73
2024/02/06 05:12:11;;;;;;;12.82;4.20;;;;;;;11.03;55.45;99577.25;4993919;28;96769;-74
2024/02/06 05:14:37;;;;;;;11.88;4.22;;;;;;;11.04;55.23;99574.53;4993272;28;97375;-73
2024/02/06 05:17:03;;;;;;;12.80;4.18;;;;;;;11.02;54.92;99549.28;4976284;28;98061;-73
2024/02/06 05:19:29;;;;;;;13.95;4.30;;;;;;;10.92;54.74;99550.66;4976351;28;96562;-74
2024/02/06 05:21:59;;;;;;;10.82;4.30;;;;;;;10.90;55.11;99547.25;4976501;28;96870;-73
2024/02/06 05:24:26;;;;;;;9.23;4.07;;;;;;;10.82;54.88;99545.84;4976075;28;97433;-73
2024/02/06 05:26:52;;;;;;;11.85;4.70;;;;;;;10.80;54.81;99546.84;4993731;28;97122;-74
2024/02/06 05:29:17;;;;;;;12.13;4.05;;;;;;;10.88;55.00;99544.69;4960541;28;96548;-79
2024/02/06 05:31:43;;;;;;;11.93;4.22;;;;;;;10.77;54.78;99536.47;4977839;28;96772;-80
2024/02/06 05:34:09;;;;;;;10.32;4.07;;;;;;;10.75;54.53;99533.91;4978743;28;97794;-79
2024/02/06 05:36:35;;;;;;;11.43;4.40;;;;;;;10.73;54.74;99542.78;4964694;28;101297;-78
2024/02/06 05:39:06;;;;;;;8.88;4.32;;;;;;;10.76;55.02;99529.50;4965025;28;96676;-78
2024/02/06 05:45:22;;;;;;;9.13;3.53;;;;;;;10.72;54.46;99526.19;4996723;28;97129;-79
2024/02/06 05:51:36;;;;;;;14.38;4.15;;;;;;;10.73;54.69;99540.16;4996950;28;97056;-79
2024/02/06 05:57:49;;;;;;;10.40;3.42;;;;;;;10.73;54.70;99543.63;4997026;28;97032;-79
2024/02/06 06:04:05;;;;;;;10.00;3.55;;;;;;;10.91;54.13;99539.31;4996794;28;96480;-79
2024/02/06 06:10:24;;;;;;;13.55;3.90;;;;;;;10.77;54.24;99536.47;4995531;28;97005;-79
2024/02/06 06:12:49;;;;;;;8.10;3.25;;;;;;;10.84;54.65;99537.88;4981242;28;97946;-79
2024/02/06 06:15:15;;;;;;;8.75;3.00;;;;;;;10.80;54.26;99531.94;4965175;28;96896;-78
2024/02/06 06:17:41;;;;;;;10.25;3.45;;;;;;;10.75;54.59;99541.78;4982202;28;96657;-79
2024/02/06 06:20:13;;;;;;;6.97;3.15;;;;;;;10.83;54.52;99538.81;4948507;28;99641;-79
2024/02/06 06:26:26;;;;;;;10.88;3.13;;;;;;;10.59;54.55;99531.16;4996533;28;96688;-77
2024/02/06 06:28:51;;;;;;;12.32;3.65;;;;;;;10.56;55.13;99531.31;5000102;28;96807;-73
2024/02/06 06:31:17;;;;;;;7.40;2.90;;;;;;;10.64;55.16;99538.81;4961667;28;97501;-75
2024/02/06 06:33:43;;;;;;;6.32;2.63;;;;;;;10.72;54.89;99531.44;4961575;28;101449;-74
2024/02/06 06:36:09;;;;;;;9.30;2.97;;;;;;;10.74;54.41;99531.38;4961292;28;96516;-74
2024/02/06 06:38:35;;;;;;;14.40;2.33;;;;;;;10.74;54.31;99534.00;4978587;28;97090;-78
2024/02/06 06:41:00;;;;;;;15.95;3.35;;;;;;;10.69;54.89;99538.59;4948116;28;100630;-78
2024/02/06 06:43:26;;;;;;;9.20;3.10;;;;;;;10.56;55.11;99539.19;4979639;28;97655;-73
2024/02/06 06:45:52;;;;;;;9.02;3.22;;;;;;;10.61;54.85;99533.72;4964035;28;96645;-77
2024/02/06 06:48:17;;;;;;;9.48;3.00;;;;;;;10.59;55.42;99536.41;4981729;28;96548;-76
2024/02/06 06:50:43;;;;;;;8.65;3.00;;;;;;;10.64;54.93;99538.81;4964783;28;98770;-79
2024/02/06 06:53:09;;;;;;;6.22;2.80;;;;;;;10.66;55.07;99547.47;4999580;28;97895;-78
2024/02/06 06:55:38;;;;;;;4.88;2.40;;;;;;;10.70;55.20;99527.19;4981527;28;96649;-78
2024/02/06 07:01:51;;;;;;;8.05;2.30;;;;;;;10.79;54.90;99543.38;4995734;28;96909;-78
2024/02/06 07:04:16;;;;;;;9.13;2.80;;;;;;;10.69;54.73;99538.59;4981177;28;97897;-78
2024/02/06 07:06:42;;;;;;;5.80;2.53;;;;;;;10.73;55.20;99538.38;4998217;28;96770;-77
2024/02/06 07:09:09;;;;;;;5.28;2.63;;;;;;;10.75;54.82;99536.53;4982316;28;96578;-77
2024/02/06 07:11:34;;;;;;;5.47;2.35;;;;;;;10.70;55.31;99540.31;4949234;28;101192;-78
2024/02/06 07:14:01;;;;;;;7.75;2.70;;;;;;;10.73;55.15;99542.78;4982350;28;96610;-78
2024/02/06 07:16:26;;;;;;;12.23;2.50;;;;;;;10.80;54.54;99538.97;4965440;28;96755;-78
2024/02/06 07:18:52;;;;;;;13.23;2.70;;;;;;;10.80;54.79;99537.19;4981989;28;96747;-77
2024/02/06 07:21:17;;;;;;;5.60;2.38;;;;;;;10.80;55.04;99539.81;4963810;28;98047;-78
2024/02/06 07:23:43;;;;;;;7.70;2.58;;;;;;;10.79;54.56;99542.47;4992782;28;97939;-77
2024/02/06 07:26:11;;;;;;;6.75;2.38;;;;;;;10.60;54.84;99547.75;4963714;28;96787;-78
2024/02/06 07:28:38;;;;;;;6.63;2.72;;;;;;;10.66;55.32;99542.22;4981818;28;96718;-78
2024/02/06 07:31:12;;;;;;;5.13;2.50;;;;;;;10.71;55.02;99550.75;4964996;28;97486;-79
2024/02/06 07:37:30;;;;;;;10.27;3.03;;;;;;;10.62;55.04;99548.56;4994527;28;96645;-78
2024/02/06 07:43:58;;;;;;;12.77;3.10;;;;;;;10.64;55.01;99557.19;4994973;28;96977;-79
2024/02/06 07:50:18;;;;;;;11.57;2.47;;;;;;;10.57;55.14;99547.91;4994680;28;96694;-80
2024/02/06 07:56:32;;;;;;;6.53;2.05;;;;;;;10.52;55.83;99555.13;4993177;28;96964;-79
2024/02/06 08:02:46;;;;;;;5.78;2.35;;;;;;;10.57;55.47;99551.38;4997038;28;96569;-80
2024/02/06 08:05:11;;;;;;;9.30;2.53;;;;;;;10.61;55.49;99545.06;4999350;28;96791;-78
2024/02/06 08:07:40;;;;;;;5.68;2.70;;;;;;;10.71;55.90;99563.03;4995426;28;97552;-78
2024/02/06 08:10:07;;;;;;;7.82;2.88;;;;;;;10.64;55.67;99551.94;4978269;28;97568;-78
2024/02/06 08:12:32;;;;;;;5.10;2.28;;;;;;;10.67;55.84;99556.19;4978692;28;96705;-81
2024/02/06 08:15:00;;;;;;;5.82;2.13;;;;;;;10.60;55.86;99543.34;4963394;28;96955;-72
2024/02/06 08:17:25;;;;;;;10.18;2.03;;;;;;;10.69;55.47;99551.72;4994273;28;97557;-73
2024/02/06 08:19:51;;;;;;;7.63;2.00;;;;;;;10.64;55.71;99555.41;4959627;28;100106;-74
2024/02/06 08:22:17;;;;;;;8.85;3.15;;;;;;;10.63;55.34;99548.47;4976302;28;96605;-72
2024/02/06 08:24:42;;;;;;;5.35;2.25;;;;;;;10.60;55.71;99560.88;4975859;28;96858;-72
2024/02/06 08:27:08;;;;;;;10.02;2.85;;;;;;;10.64;55.32;99555.41;4959644;28;97510;-74
2024/02/06 08:29:35;;;;;;;8.48;2.38;;;;;;;10.64;55.66;99552.78;4959517;28;101203;-76
2024/02/06 08:32:00;;;;;;;6.55;2.17;;;;;;;10.77;55.23;99553.06;4994427;28;97198;-74
2024/02/06 08:34:26;;;;;;;7.95;2.13;;;;;;;10.86;55.61;99557.03;4976523;28;96992;-72
2024/02/06 08:36:51;;;;;;;14.52;3.60;;;;;;;10.90;55.49;99555.13;4959582;28;97213;-73
2024/02/06 08:39:17;;;;;;;8.82;2.53;;;;;;;10.90;55.30;99550.72;4994534;28;97305;-73
2024/02/06 08:41:43;;;;;;;7.47;2.10;;;;;;;10.87;55.80;99548.22;4976327;28;96593;-73
2024/02/06 08:44:08;;;;;;;4.85;2.42;;;;;;;10.95;55.46;99547.88;4976335;28;96862;-74
2024/02/06 08:46:35;;;;;;;7.65;2.78;;;;;;;10.92;55.57;99553.28;4993049;28;97996;-72
2024/02/06 08:49:00;;;;;;;10.90;5.60;;;;;;;10.83;55.77;99551.94;4993743;28;97515;-73
2024/02/06 08:51:26;;;;;;;6.13;2.47;;;;;;;10.73;56.01;99562.00;4958922;28;96767;-72
2024/02/06 08:53:51;;;;;;;6.55;1.98;;;;;;;10.77;56.38;99550.44;4994275;28;96539;-75
2024/02/06 08:56:17;;;;;;;9.40;3.25;;;;;;;11.49;61.87;99553.97;4994547;28;97675;-75
2024/02/06 08:58:42;;;;;;;7.70;2.85;;;;;;;11.64;55.89;99552.38;4994288;28;97870;-72
2024/02/06 09:01:08;;;;;;;7.30;2.30;;;;;;;11.50;55.14;99558.31;4994093;28;96453;-74
2024/02/06 09:03:34;;;;;;;6.22;1.95;;;;;;;11.47;55.48;99555.84;4976758;28;96735;-73
2024/02/06 09:06:00;;;;;;;12.13;2.33;;;;;;;11.44;55.53;99554.22;4976409;28;97394;-72
2024/02/06 09:08:26;;;;;;;8.63;2.10;;;;;;;11.50;55.75;99547.81;4976539;28;97906;-72
2024/02/06 09:10:51;;;;;;;5.63;2.13;;;;;;;11.44;55.54;99548.13;4978544;28;96692;-74
2024/02/06 09:13:17;;;;;;;8.13;2.42;;;;;;;11.36;55.61;99540.59;4997284;28;96816;-73
2024/02/06 09:15:43;;;;;;;3.67;1.83;;;;;;;11.37;55.52;99544.91;4997093;28;97419;-73
2024/02/06 09:18:08;;;;;;;6.45;2.05;;;;;;;11.40;55.75;99529.00;4978714;28;98932;-73
2024/02/06 09:20:33;;;;;;;5.93;2.47;;;;;;;11.47;55.31;99543.56;4979516;28;96522;-73
2024/02/06 09:22:59;;;;;;;4.75;2.45;;;;;;;11.53;55.38;99534.50;4995807;28;96778;-74
2024/02/06 09:25:24;;;;;;;5.82;2.00;;;;;;;11.44;54.71;99533.19;4978068;28;97562;-73
2024/02/06 09:27:50;;;;;;;5.53;2.15;;;;;;;11.55;54.88;99545.81;4996382;28;97631;-72
2024/02/06 09:30:17;;;;;;;6.03;2.10;;;;;;;11.52;54.69;99538.06;4996236;28;96650;-73
2024/02/06 09:32:43;;;;;;;6.53;1.70;;;;;;;11.58;54.41;99535.13;4961859;28;96904;-74
2024/02/06 09:35:10;;;;;;;13.65;2.25;;;;;;;11.54;54.51;99526.53;4977429;28;97383;-73
2024/02/06 09:37:36;;;;;;;4.47;1.90;;;;;;;11.55;54.74;99522.16;4996009;28;97370;-73
2024/02/06 09:40:02;;;;;;;6.50;2.22;;;;;;;11.41;54.64;99511.47;4978800;28;96624;-73
2024/02/06 09:42:28;;;;;;;8.38;2.42;;;;;;;11.52;54.19;99535.44;4997188;28;96863;-72
2024/02/06 09:44:54;;;;;;;6.13;2.28;;;;;;;11.46;54.26;99522.59;4978501;28;98141;-73
2024/02/06 09:47:20;;;;;;;4.47;1.77;;;;;;;11.56;54.25;99527.31;4978164;28;97527;-74
2024/02/06 09:49:46;;;;;;;9.30;2.50;;;;;;;11.45;54.73;99505.13;4978042;28;96610;-73
2024/02/06 09:52:13;;;;;;;7.35;1.67;;;;;;;11.37;54.13;99525.69;4961856;28;96875;-72
2024/02/06 09:54:42;;;;;;;4.82;1.42;;;;;;;11.20;54.93;99532.63;4961378;28;97492;-73
2024/02/06 09:57:08;;;;;;;6.38;1.77;;;;;;;11.19;54.54;99527.44;4977643;28;97594;-72
2024/02/06 09:59:34;;;;;;;5.60;1.73;;;;;;;11.26;54.92;99527.09;4995291;28;96620;-75
2024/02/06 10:02:00;;;;;;;7.53;1.70;;;;;;;11.33;54.47;99530.25;4978004;28;96786;-75
2024/02/06 10:04:30;;;;;;;6.43;1.70;;;;;;;11.36;54.44;99532.72;4977643;28;97419;-74
2024/02/06 10:06:56;;;;;;;7.72;2.05;;;;;;;11.33;55.00;99523.22;4960919;28;102128;-72
2024/02/06 10:09:21;;;;;;;9.95;1.77;;;;;;;11.25;54.51;99530.63;4977803;28;96660;-74
2024/02/06 10:11:47;;;;;;;2.83;1.55;;;;;;;11.35;54.49;99517.91;4977790;28;96937;-71
2024/02/06 10:14:12;;;;;;;6.72;1.90;;;;;;;11.33;54.01;99511.84;4995393;28;97509;-73
2024/02/06 10:16:39;;;;;;;6.50;2.10;;;;;;;11.43;54.23;99521.00;4977822;28;98308;-73
2024/02/06 10:19:04;;;;;;;5.32;1.92;;;;;;;11.46;54.01;99519.97;4977761;28;96653;-74
2024/02/06 10:21:32;;;;;;;4.28;1.83;;;;;;;11.43;54.21;99512.22;4976906;28;96759;-72
2024/02/06 10:24:02;;;;;;;9.35;2.20;;;;;;;11.38;53.50;99509.84;4975488;28;101021;-76
2024/02/06 10:26:28;;;;;;;4.18;1.83;;;;;;;11.41;53.98;99506.22;4977445;28;98083;-73
2024/02/06 10:29:23;;;;;;;3.08;1.70;;;;;;;11.47;53.32;99504.13;4995509;28;96759;-72
2024/02/06 10:31:50;;;;;;;4.63;1.95;;;;;;;11.42;53.24;99492.16;4940141;28;96688;-72
2024/02/06 10:34:16;;;;;;;5.20;1.85;;;;;;;11.44;53.21;99499.03;4976279;28;97775;-73
2024/02/06 10:36:41;;;;;;;6.78;2.10;;;;;;;11.47;52.69;99498.88;4976834;28;100279;-73
2024/02/06 10:39:10;;;;;;;4.55;1.70;;;;;;;11.44;52.69;99491.16;4960923;28;96589;-72
2024/02/06 10:41:36;;;;;;;3.92;1.63;;;;;;;11.53;52.87;99488.03;4977332;28;96971;-73
2024/02/06 10:44:13;;;;;;;7.45;1.73;;;;;;;11.53;53.12;99487.19;4960721;28;97488;-73
2024/02/06 10:46:43;;;;;;;5.50;2.10;;;;;;;11.56;52.51;99495.78;4961115;28;97559;-73
2024/02/06 10:49:09;;;;;;;5.32;1.98;;;;;;;11.52;52.71;99483.72;4994694;28;96591;-73
2024/02/06 10:51:34;;;;;;;5.50;2.03;;;;;;;11.49;52.16;99483.00;4977333;28;96857;-72
2024/02/06 10:54:00;;;;;;;8.80;2.42;;;;;;;11.48;53.08;99482.16;4961038;28;101011;-73
2024/02/06 10:56:26;;;;;;;7.22;1.88;;;;;;;11.52;52.88;99489.00;4960552;28;99264;-72
2024/02/06 10:58:57;;;;;;;10.90;2.17;;;;;;;11.57;52.65;99486.09;4944399;28;96602;-73
2024/02/06 11:01:34;;;;;;;7.63;2.35;;;;;;;11.53;52.86;99471.44;4977378;28;96516;-72
2024/02/06 11:04:11;;;;;;;9.02;3.10;;;;;;;11.61;52.65;99476.31;4976901;28;97743;-74
2024/02/06 11:06:50;;;;;;;5.63;2.67;;;;;;;11.63;52.85;99469.16;4961039;28;97183;-72
2024/02/06 11:09:17;;;;;;;5.93;1.95;;;;;;;11.54;52.82;99462.59;4977001;28;96634;-74
2024/02/06 11:11:42;;;;;;;9.02;2.50;;;;;;;11.55;52.73;99464.31;4976944;28;96798;-73
2024/02/06 11:14:11;;;;;;;7.25;2.35;;;;;;;11.60;52.94;99470.19;4975987;28;97897;-73
2024/02/06 11:16:45;;;;;;;5.32;1.98;;;;;;;11.56;52.74;99456.34;4960458;28;97441;-74
2024/02/06 11:19:20;;;;;;;5.55;2.17;;;;;;;11.69;52.72;99458.34;4962326;28;96553;-76
2024/02/06 11:21:51;;;;;;;6.20;2.40;;;;;;;11.68;52.61;99446.13;4964333;28;96854;-79
2024/02/06 11:24:17;;;;;;;8.55;2.92;;;;;;;11.69;52.53;99440.81;4992496;28;97587;-78
2024/02/06 11:26:43;;;;;;;6.30;2.28;;;;;;;11.71;52.63;99438.09;4968329;28;96921;-72
2024/02/06 11:29:09;;;;;;;4.70;2.30;;;;;;;11.62;52.72;99441.19;4943717;28;96829;-73
2024/02/06 11:31:38;;;;;;;5.40;1.73;;;;;;;11.63;52.51;99429.75;4995119;28;96741;-75
2024/02/06 11:34:13;;;;;;;5.55;1.77;;;;;;;11.64;52.32;99450.69;4976854;28;97418;-79
2024/02/06 11:36:42;;;;;;;7.45;2.47;;;;;;;11.77;53.96;99435.97;4960705;28;101379;-79
2024/02/06 11:39:09;;;;;;;8.48;2.50;;;;;;;11.73;52.79;99439.69;4963090;28;96623;-72
2024/02/06 11:41:35;;;;;;;4.88;2.03;;;;;;;11.62;52.10;99423.63;4964883;28;96941;-81
2024/02/06 11:44:12;;;;;;;8.60;2.10;;;;;;;11.81;52.02;99436.69;4960539;28;97922;-72
2024/02/06 11:46:45;;;;;;;5.57;2.50;;;;;;;11.65;52.21;99420.84;4976983;28;97375;-74
2024/02/06 11:49:12;;;;;;;4.30;1.60;;;;;;;11.77;51.57;99417.56;4976523;28;96730;-73
2024/02/06 11:51:41;;;;;;;11.07;1.90;;;;;;;11.82;52.06;99427.00;4976605;28;96806;-73
2024/02/06 11:54:13;;;;;;;6.22;2.42;;;;;;;11.81;51.96;99418.28;4994216;28;97541;-77
2024/02/06 11:56:39;;;;;;;2.72;1.58;;;;;;;11.78;52.25;99424.53;4976327;28;97861;-72
2024/02/06 11:59:05;;;;;;;10.50;2.38;;;;;;;11.84;52.18;99418.09;4976312;28;96632;-73
2024/02/06 12:01:30;;;;;;;5.80;1.88;;;;;;;11.83;52.40;99408.50;4994463;28;96864;-74
2024/02/06 12:03:57;;;;;;;5.05;2.25;;;;;;;11.81;52.12;99417.41;4976344;28;97447;-76
2024/02/06 12:06:22;;;;;;;6.65;2.35;;;;;;;11.86;52.18;99412.78;4944219;28;99711;-74
2024/02/06 12:08:48;;;;;;;9.23;2.45;;;;;;;11.87;52.27;99420.59;4994577;28;96524;-76
2024/02/06 12:11:14;;;;;;;8.07;2.17;;;;;;;11.77;52.33;99400.94;4959556;28;99676;-75